Time;durP1;ratioP1;P1;durP2;ratioP2;P2;SDS_P1;SDS_P2;PMS_P1;PMS_P2;Temp;Humidity;BMP_temperature;BMP_pressure;BME280_temperature;BME280_humidity;BME280_pressure;Samples;Min_cycle;Max_cycle;Signal;HPM_P1;HPM_P2
2024/01/28 00:00:01;;;;;;;4.55;2.30;;;;;;;2.06;90.62;101218.41;336013;28;4679;-76
2024/01/28 00:00:14;;;;;;;4.57;2.20;;;;;;;2.07;90.58;101216.69;337689;28;5104;-76
2024/01/28 00:00:27;;;;;;;6.20;2.38;;;;;;;2.07;90.19;101220.13;332833;28;17845;-76
2024/01/28 00:00:39;;;;;;;6.35;2.42;;;;;;;2.08;90.57;101221.03;334945;28;6996;-76
2024/01/28 00:00:51;;;;;;;8.88;2.70;;;;;;;2.09;90.60;101215.03;335603;28;4870;-76
2024/01/28 00:01:03;;;;;;;7.97;2.78;;;;;;;2.10;90.06;101216.81;334709;28;11614;-76
2024/01/28 00:01:16;;;;;;;7.18;2.95;;;;;;;2.11;90.34;101215.94;333352;29;11330;-76
2024/01/28 00:01:28;;;;;;;6.80;3.03;;;;;;;2.09;89.94;101212.47;335484;28;4534;-76
2024/01/28 00:01:41;;;;;;;4.45;2.85;;;;;;;2.07;90.04;101209.88;333129;28;12293;-76
2024/01/28 00:01:53;;;;;;;5.32;2.70;;;;;;;2.06;89.67;101217.53;335961;28;5456;-76
2024/01/28 00:02:05;;;;;;;6.53;2.67;;;;;;;2.04;89.79;101214.94;332992;28;18505;-76
2024/01/28 00:02:17;;;;;;;6.35;2.55;;;;;;;2.00;89.99;101206.28;336439;28;4682;-76
2024/01/28 00:02:30;;;;;;;7.22;2.30;;;;;;;2.00;89.85;101216.53;332118;28;12014;-76
2024/01/28 00:02:43;;;;;;;5.93;2.55;;;;;;;1.98;89.40;101209.63;333420;28;4893;-76
2024/01/28 00:02:55;;;;;;;5.95;2.58;;;;;;;1.97;89.61;101207.88;334270;28;4817;-76
2024/01/28 00:03:07;;;;;;;4.90;2.25;;;;;;;1.98;89.57;101214.75;335942;28;4515;-76
2024/01/28 00:03:20;;;;;;;5.65;2.50;;;;;;;1.98;90.13;101205.38;335959;28;4743;-76
2024/01/28 00:03:32;;;;;;;7.10;2.50;;;;;;;2.00;89.97;101207.97;334118;28;18042;-76
2024/01/28 00:03:45;;;;;;;6.25;2.53;;;;;;;1.99;90.11;101207.13;334026;28;5677;-76
2024/01/28 00:03:57;;;;;;;6.25;2.40;;;;;;;1.98;89.73;101207.94;337661;28;4663;-76
2024/01/28 00:04:09;;;;;;;4.88;2.35;;;;;;;1.97;89.89;101211.34;331581;28;5278;-76
2024/01/28 00:04:21;;;;;;;5.68;2.45;;;;;;;1.95;89.89;101210.44;334523;28;18977;-76
2024/01/28 00:04:33;;;;;;;6.32;2.70;;;;;;;1.93;89.83;101206.97;336775;28;5605;-76
2024/01/28 00:04:45;;;;;;;5.53;2.92;;;;;;;1.90;89.98;101206.84;333710;28;18523;-76
2024/01/28 00:04:57;;;;;;;5.88;2.95;;;;;;;1.92;90.14;101207.75;335636;28;4594;-76
2024/01/28 00:05:13;;;;;;;4.72;2.72;;;;;;;1.94;90.08;101207.81;335370;28;5330;-76
2024/01/28 00:05:25;;;;;;;4.40;2.40;;;;;;;1.90;89.66;101204.28;335353;28;17981;-76
2024/01/28 00:05:38;;;;;;;5.25;2.58;;;;;;;1.92;90.00;101210.34;329204;28;18099;-76
2024/01/28 00:05:51;;;;;;;5.63;2.75;;;;;;;1.91;89.96;101198.34;335817;28;4547;-76
2024/01/28 00:06:04;;;;;;;5.03;2.70;;;;;;;1.90;89.47;101201.72;332994;28;18363;-76
2024/01/28 00:06:16;;;;;;;4.78;2.88;;;;;;;1.93;89.63;101203.50;335072;28;17879;-76
2024/01/28 00:06:28;;;;;;;5.03;2.92;;;;;;;1.88;89.99;101203.38;337058;28;4886;-76
2024/01/28 00:06:41;;;;;;;5.60;2.78;;;;;;;1.88;89.87;101200.81;332798;28;13299;-76
2024/01/28 00:06:53;;;;;;;5.40;2.45;;;;;;;1.84;89.71;101204.13;337400;28;4532;-76
2024/01/28 00:07:05;;;;;;;3.88;2.20;;;;;;;1.83;89.38;101198.94;332872;28;4759;-76
2024/01/28 00:07:17;;;;;;;3.78;2.10;;;;;;;1.83;89.81;101199.81;335152;28;16795;-76
2024/01/28 00:07:29;;;;;;;4.03;2.42;;;;;;;1.81;90.07;101196.31;337162;28;4739;-76
2024/01/28 00:07:41;;;;;;;4.03;2.85;;;;;;;1.79;90.38;101201.44;334126;28;17956;-76
2024/01/28 00:07:53;;;;;;;5.28;3.03;;;;;;;1.77;90.22;101194.50;336522;28;5561;-76
2024/01/28 00:08:06;;;;;;;5.18;2.95;;;;;;;1.77;89.97;101204.75;336837;28;4537;-76
2024/01/28 00:08:18;;;;;;;5.22;2.65;;;;;;;1.73;90.47;101200.38;334622;28;17842;-76
2024/01/28 00:08:30;;;;;;;6.30;2.85;;;;;;;1.73;90.48;101202.94;337003;28;4691;-76
2024/01/28 00:08:42;;;;;;;7.25;2.80;;;;;;;1.73;90.08;101197.81;334632;28;4696;-76
2024/01/28 00:08:54;;;;;;;8.45;2.88;;;;;;;1.75;90.25;101196.16;336321;28;5331;-76
2024/01/28 00:09:06;;;;;;;7.70;2.70;;;;;;;1.75;90.27;101203.84;335404;28;12497;-76
2024/01/28 00:09:18;;;;;;;6.35;2.70;;;;;;;1.75;90.78;101201.28;334846;28;18081;-76
2024/01/28 00:09:30;;;;;;;5.80;2.65;;;;;;;1.74;90.29;101203.00;336406;28;4665;-76
2024/01/28 00:09:43;;;;;;;5.32;2.70;;;;;;;1.76;90.67;101203.03;334511;28;18929;-76
2024/01/28 00:09:55;;;;;;;5.15;2.85;;;;;;;1.77;90.31;101202.19;333997;28;4515;-76
2024/01/28 00:10:07;;;;;;;5.50;3.13;;;;;;;1.74;90.32;101200.44;334922;28;14353;-76
2024/01/28 00:10:19;;;;;;;5.90;3.08;;;;;;;1.73;90.26;101200.38;337433;28;4702;-76
2024/01/28 00:10:32;;;;;;;5.68;2.95;;;;;;;1.73;90.34;101202.94;337057;28;4830;-76
2024/01/28 00:10:44;;;;;;;4.38;2.60;;;;;;;1.73;90.72;101197.81;332890;28;18414;-76
2024/01/28 00:10:56;;;;;;;4.30;2.47;;;;;;;1.75;90.76;101196.16;335164;29;5663;-76
2024/01/28 00:11:08;;;;;;;4.82;2.45;;;;;;;1.71;90.23;101200.34;332725;29;13032;-76
2024/01/28 00:11:20;;;;;;;4.88;2.83;;;;;;;1.66;90.30;101198.47;336184;29;5341;-76
2024/01/28 00:11:32;;;;;;;5.00;3.03;;;;;;;1.66;90.72;101195.91;333679;29;12596;-76
2024/01/28 00:11:44;;;;;;;5.53;2.92;;;;;;;1.66;90.82;101199.34;336085;29;4739;-76
2024/01/28 00:11:56;;;;;;;5.28;2.88;;;;;;;1.67;90.52;101203.66;337529;28;4528;-76
2024/01/28 00:12:10;;;;;;;4.47;2.75;;;;;;;1.65;89.98;101196.72;333411;28;18273;-74
2024/01/28 00:12:22;;;;;;;4.53;2.95;;;;;;;1.64;90.62;101200.13;332870;28;17559;-75
2024/01/28 00:12:34;;;;;;;4.75;3.03;;;;;;;1.65;90.35;101199.28;337038;28;4776;-75
2024/01/28 00:12:46;;;;;;;4.32;2.80;;;;;;;1.66;90.57;101196.78;337286;28;4709;-75
2024/01/28 00:12:59;;;;;;;4.75;2.78;;;;;;;1.64;90.59;101195.88;333582;28;12015;-75
2024/01/28 00:13:11;;;;;;;5.40;2.95;;;;;;;1.65;90.38;101194.16;335728;29;5321;-75
2024/01/28 00:13:28;;;;;;;6.13;3.45;;;;;;;1.63;90.52;101194.16;332756;28;17757;-75
2024/01/28 00:13:40;;;;;;;5.68;3.08;;;;;;;1.62;91.20;101201.78;331853;28;18658;-75
2024/01/28 00:13:52;;;;;;;5.03;2.67;;;;;;;1.62;91.23;101199.22;336201;28;5483;-75
2024/01/28 00:14:04;;;;;;;4.35;2.80;;;;;;;1.58;91.07;101198.25;333365;28;18015;-75
2024/01/28 00:14:17;;;;;;;4.60;2.97;;;;;;;1.56;91.29;101198.19;331760;28;4913;-75
2024/01/28 00:14:29;;;;;;;4.90;3.13;;;;;;;1.53;91.08;101195.56;334234;28;4620;-75
2024/01/28 00:14:41;;;;;;;5.45;3.00;;;;;;;1.49;91.53;101193.75;337423;28;4497;-75
2024/01/28 00:14:52;;;;;;;5.45;3.03;;;;;;;1.49;91.30;101193.75;335123;28;4874;-75
2024/01/28 00:15:06;;;;;;;5.25;3.10;;;;;;;1.50;91.28;101195.47;337375;28;4705;-75
2024/01/28 00:15:18;;;;;;;4.78;2.97;;;;;;;1.52;91.47;101190.38;335916;28;18278;-75
2024/01/28 00:15:30;;;;;;;5.25;2.80;;;;;;;1.51;91.09;101194.66;337407;28;5682;-75
2024/01/28 00:15:44;;;;;;;5.82;2.95;;;;;;;1.54;91.54;101196.44;335428;28;4604;-75
2024/01/28 00:15:56;;;;;;;7.40;3.13;;;;;;;1.52;90.98;101201.50;336732;28;4557;-75
2024/01/28 00:16:18;;;;;;;6.47;3.10;;;;;;;1.54;91.31;101197.28;334094;28;5608;-75
2024/01/28 00:16:30;;;;;;;4.82;3.30;;;;;;;1.55;91.42;101193.91;335047;28;17676;-75
2024/01/28 00:16:42;;;;;;;4.85;3.15;;;;;;;1.58;91.47;101196.56;337074;28;5036;-75
2024/01/28 00:16:54;;;;;;;5.80;3.00;;;;;;;1.62;91.04;101199.22;334396;28;18300;-75
2024/01/28 00:17:06;;;;;;;5.65;2.85;;;;;;;1.62;91.40;101194.09;332665;28;4631;-75
2024/01/28 00:17:23;;;;;;;5.95;3.20;;;;;;;1.62;91.38;101194.09;334415;28;17708;-75
2024/01/28 00:17:35;;;;;;;6.17;3.20;;;;;;;1.64;91.28;101197.56;334041;28;17982;-75
2024/01/28 00:17:47;;;;;;;5.65;3.13;;;;;;;1.63;91.47;101195.81;337266;28;5079;-75
2024/01/28 00:17:59;;;;;;;6.57;3.08;;;;;;;1.62;91.31;101199.22;333797;28;16207;-75
2024/01/28 00:18:11;;;;;;;6.57;3.05;;;;;;;1.63;91.41;101195.81;336978;28;5496;-75
2024/01/28 00:18:24;;;;;;;5.70;2.97;;;;;;;1.66;91.14;101195.91;334105;28;12232;-75
2024/01/28 00:18:36;;;;;;;5.55;3.00;;;;;;;1.65;91.06;101189.03;336554;28;17041;-75
2024/01/28 00:18:49;;;;;;;7.13;3.10;;;;;;;1.66;91.55;101194.22;334931;28;12306;-75
2024/01/28 00:19:01;;;;;;;7.45;2.92;;;;;;;1.66;91.63;101186.53;337146;28;4542;-75
2024/01/28 00:19:13;;;;;;;6.28;2.75;;;;;;;1.69;91.07;101180.59;337044;28;10520;-75
2024/01/28 00:19:26;;;;;;;6.25;3.13;;;;;;;1.68;91.40;101184.00;336742;28;17374;-75
2024/01/28 00:19:38;;;;;;;6.60;3.10;;;;;;;1.66;91.36;101185.66;337068;28;4731;-75
2024/01/28 00:19:50;;;;;;;7.55;3.13;;;;;;;1.69;91.74;101185.72;335539;28;17356;-75
2024/01/28 00:20:05;;;;;;;6.32;2.85;;;;;;;1.67;91.70;101193.41;336420;28;4828;-75
2024/01/28 00:20:17;;;;;;;5.07;2.70;;;;;;;1.70;91.68;101192.63;333257;28;16334;-75
2024/01/28 00:20:29;;;;;;;5.45;2.85;;;;;;;1.69;91.48;101196.00;333246;28;17980;-75
2024/01/28 00:20:41;;;;;;;4.90;2.97;;;;;;;1.72;91.62;101190.97;335939;28;5193;-75
2024/01/28 00:20:53;;;;;;;5.78;3.25;;;;;;;1.69;91.30;101181.50;337639;28;4540;-75
2024/01/28 00:21:05;;;;;;;6.13;3.38;;;;;;;1.71;91.67;101184.97;334279;28;17886;-75
2024/01/28 00:21:17;;;;;;;7.78;3.38;;;;;;;1.71;91.15;101194.34;336279;28;4570;-75
2024/01/28 00:21:29;;;;;;;6.97;3.47;;;;;;;1.71;91.52;101191.78;335599;28;4799;-75
2024/01/28 00:21:41;;;;;;;5.85;3.22;;;;;;;1.68;91.55;101186.56;334320;28;18309;-76
2024/01/28 00:21:53;;;;;;;6.03;3.47;;;;;;;1.65;91.83;101186.47;337571;28;7263;-76
2024/01/28 00:22:06;;;;;;;5.90;3.47;;;;;;;1.67;91.62;101182.25;333456;28;18187;-76
2024/01/28 00:22:18;;;;;;;6.78;3.05;;;;;;;1.67;91.84;101187.38;335168;28;4514;-76
2024/01/28 00:22:30;;;;;;;6.85;3.15;;;;;;;1.63;91.36;101183.88;333652;28;6871;-76
2024/01/28 00:22:42;;;;;;;6.57;3.30;;;;;;;1.51;91.72;101181.84;332383;28;4958;-76
2024/01/28 00:22:54;;;;;;;5.97;3.22;;;;;;;1.52;92.07;101183.56;336926;28;4550;-76
2024/01/28 00:23:06;;;;;;;5.45;3.10;;;;;;;1.53;92.23;101184.44;332904;28;17678;-76
2024/01/28 00:23:20;;;;;;;5.32;2.97;;;;;;;1.51;92.35;101186.97;336763;28;4540;-76
2024/01/28 00:23:32;;;;;;;5.90;2.97;;;;;;;1.54;92.39;101191.31;334879;28;18211;-76
2024/01/28 00:23:44;;;;;;;5.63;2.70;;;;;;;1.54;92.55;101181.91;336719;28;5351;-76
2024/01/28 00:23:59;;;;;;;5.00;2.75;;;;;;;1.56;92.22;101179.41;334373;28;18167;-76
2024/01/28 00:24:11;;;;;;;6.15;3.22;;;;;;;1.55;92.30;101183.66;335951;28;13290;-76
2024/01/28 00:24:23;;;;;;;6.85;3.38;;;;;;;1.56;92.52;101180.25;338129;28;4695;-76
2024/01/28 00:24:36;;;;;;;6.05;3.20;;;;;;;1.55;92.44;101178.53;334348;28;4579;-76
2024/01/28 00:24:48;;;;;;;6.15;3.20;;;;;;;1.55;92.36;101182.78;336690;28;5272;-76
2024/01/28 00:25:00;;;;;;;6.32;3.15;;;;;;;1.56;92.57;101180.25;333395;28;13853;-76
2024/01/28 00:25:12;;;;;;;5.82;2.80;;;;;;;1.53;92.30;101181.88;337600;28;4720;-76
2024/01/28 00:25:24;;;;;;;6.78;2.90;;;;;;;1.54;92.10;101181.91;338813;28;4621;-76
2024/01/28 00:25:36;;;;;;;7.35;3.38;;;;;;;1.54;92.37;101181.91;335662;28;12789;-76
2024/01/28 00:25:48;;;;;;;7.40;3.63;;;;;;;1.53;92.52;101180.19;336005;28;17955;-76
2024/01/28 00:26:02;;;;;;;6.30;3.55;;;;;;;1.53;92.44;101185.31;338561;28;4731;-76
2024/01/28 00:26:14;;;;;;;5.82;3.45;;;;;;;1.54;92.35;101186.19;335774;28;18062;-76
2024/01/28 00:26:26;;;;;;;7.13;3.55;;;;;;;1.52;92.33;101183.56;336309;28;16197;-76
2024/01/28 00:26:39;;;;;;;7.40;3.20;;;;;;;1.47;92.25;101180.00;338455;28;5310;-76
2024/01/28 00:26:51;;;;;;;7.38;3.03;;;;;;;1.48;92.50;101186.88;334541;28;16526;-76
2024/01/28 00:27:04;;;;;;;7.53;3.33;;;;;;;1.49;92.13;101182.59;332684;28;4586;-76
2024/01/28 00:27:16;;;;;;;5.03;3.35;;;;;;;1.46;92.60;101185.09;334632;28;11316;-76
2024/01/28 00:27:28;;;;;;;5.90;3.50;;;;;;;1.46;92.25;101183.38;337145;28;4676;-76
2024/01/28 00:27:40;;;;;;;5.72;3.17;;;;;;;1.45;92.48;101181.66;337624;28;5222;-76
2024/01/28 00:27:52;;;;;;;6.05;3.42;;;;;;;1.46;92.73;101183.38;333351;28;18856;-76
2024/01/28 00:28:04;;;;;;;5.88;3.58;;;;;;;1.44;92.59;101184.19;337058;28;5166;-76
2024/01/28 00:28:16;;;;;;;5.80;3.35;;;;;;;1.45;93.09;101186.78;335201;28;4549;-76
2024/01/28 00:28:29;;;;;;;5.30;2.97;;;;;;;1.43;92.58;101183.31;336384;28;18356;-76
2024/01/28 00:28:41;;;;;;;5.40;3.10;;;;;;;1.45;93.13;101181.66;331281;28;5041;-76
2024/01/28 00:28:53;;;;;;;7.82;3.63;;;;;;;1.47;93.05;101180.00;332492;28;17068;-76
2024/01/28 00:29:06;;;;;;;7.13;3.45;;;;;;;1.46;92.83;101177.41;335611;29;5428;-76
2024/01/28 00:29:20;;;;;;;5.97;3.45;;;;;;;1.48;93.06;101176.63;333294;28;18009;-76
2024/01/28 00:29:32;;;;;;;4.82;2.92;;;;;;;1.47;92.61;101174.91;332936;29;11949;-76
2024/01/28 00:29:44;;;;;;;4.13;2.92;;;;;;;1.48;93.11;101176.63;335402;28;5298;-76
2024/01/28 00:29:55;;;;;;;13.77;3.08;;;;;;;1.48;92.52;101181.75;335751;29;5325;-76
2024/01/28 00:30:10;;;;;;;14.82;3.22;;;;;;;1.41;92.70;101177.28;333996;28;11659;-76
2024/01/28 00:30:24;;;;;;;7.97;3.08;;;;;;;1.35;93.31;101180.53;334828;28;18246;-76
2024/01/28 00:30:36;;;;;;;7.72;3.10;;;;;;;1.40;93.27;101175.53;336134;29;4705;-76
2024/01/28 00:30:48;;;;;;;7.25;2.97;;;;;;;1.37;93.51;101175.44;334080;28;5074;-76
2024/01/28 00:31:00;;;;;;;8.73;3.17;;;;;;;1.40;93.45;101172.97;337091;28;5073;-76
2024/01/28 00:31:12;;;;;;;9.32;3.30;;;;;;;1.42;93.15;101179.00;337440;28;4839;-76
2024/01/28 00:31:24;;;;;;;8.60;3.38;;;;;;;1.43;93.26;101174.72;333838;28;18258;-76
2024/01/28 00:31:36;;;;;;;6.70;3.08;;;;;;;1.45;93.58;101175.66;331606;28;4891;-76
2024/01/28 00:31:48;;;;;;;7.07;3.10;;;;;;;1.42;93.69;101176.44;333975;28;17752;-76
2024/01/28 00:32:00;;;;;;;7.10;3.22;;;;;;;1.45;93.37;101179.09;336632;28;4524;-76
2024/01/28 00:32:12;;;;;;;6.38;3.28;;;;;;;1.45;93.22;101176.53;336912;28;5510;-76
2024/01/28 00:32:24;;;;;;;5.68;3.08;;;;;;;1.46;93.64;101173.13;334474;28;18072;-76
2024/01/28 00:32:36;;;;;;;5.10;3.05;;;;;;;1.47;92.99;101179.13;337301;28;5422;-76
2024/01/28 00:32:48;;;;;;;5.88;3.10;;;;;;;1.46;93.54;101177.41;335108;28;5579;-76
2024/01/28 00:33:01;;;;;;;7.03;3.38;;;;;;;1.46;93.50;101173.13;335793;28;4744;-76
2024/01/28 00:33:14;;;;;;;6.82;3.25;;;;;;;1.47;93.39;101174.91;330641;29;4782;-76
2024/01/28 00:33:26;;;;;;;6.35;3.10;;;;;;;1.47;93.54;101174.00;335349;28;4641;-76
2024/01/28 00:33:39;;;;;;;6.78;3.15;;;;;;;1.46;93.12;101169.72;333037;28;12287;-76
2024/01/28 00:33:51;;;;;;;6.15;3.30;;;;;;;1.49;93.04;101177.47;335257;28;4556;-76
2024/01/28 00:34:03;;;;;;;5.47;3.30;;;;;;;1.49;93.81;101175.81;337007;28;4518;-76
2024/01/28 00:34:15;;;;;;;4.78;3.00;;;;;;;1.49;93.44;101173.25;333687;28;18000;-74
2024/01/28 00:34:27;;;;;;;6.30;2.88;;;;;;;1.48;93.23;101176.63;331558;28;5235;-75
2024/01/28 00:34:40;;;;;;;6.72;3.08;;;;;;;1.49;93.24;101170.69;332676;29;17966;-77
2024/01/28 00:34:53;;;;;;;5.65;2.97;;;;;;;1.47;93.56;101168.88;334715;29;5178;-75
2024/01/28 00:35:06;;;;;;;4.50;2.72;;;;;;;1.45;93.64;101173.97;327317;29;18260;-75
2024/01/28 00:35:18;;;;;;;4.43;2.65;;;;;;;1.46;93.33;101180.81;332714;29;4667;-75
2024/01/28 00:35:30;;;;;;;5.43;2.80;;;;;;;1.43;93.68;101178.19;330529;29;18770;-75
2024/01/28 00:35:42;;;;;;;6.53;2.90;;;;;;;1.44;93.60;101168.81;334987;29;5309;-75
2024/01/28 00:35:54;;;;;;;7.72;3.38;;;;;;;1.44;94.08;101174.78;334176;29;4968;-75
2024/01/28 00:36:06;;;;;;;5.88;3.47;;;;;;;1.40;93.96;101171.25;327205;28;16646;-75
2024/01/28 00:36:18;;;;;;;5.88;3.30;;;;;;;1.41;94.17;101177.28;336178;28;4609;-75
2024/01/28 00:36:30;;;;;;;5.95;3.45;;;;;;;1.41;93.91;101174.72;333532;28;18035;-75
2024/01/28 00:36:42;;;;;;;5.25;3.28;;;;;;;1.41;93.91;101174.72;336965;28;5017;-75
2024/01/28 00:36:55;;;;;;;4.93;3.25;;;;;;;1.45;93.98;101176.53;333557;28;12006;-75
2024/01/28 00:37:07;;;;;;;5.25;3.08;;;;;;;1.45;93.97;101171.41;336079;28;4555;-75
2024/01/28 00:37:19;;;;;;;5.47;3.10;;;;;;;1.44;93.86;101176.50;336649;28;4713;-75
2024/01/28 00:37:31;;;;;;;5.40;3.08;;;;;;;1.43;93.79;101178.19;334623;28;17439;-76
2024/01/28 00:37:43;;;;;;;5.82;3.05;;;;;;;1.43;93.78;101173.06;336887;28;4572;-76
2024/01/28 00:37:57;;;;;;;6.50;3.35;;;;;;;1.43;93.70;101178.19;335121;28;5406;-76
2024/01/28 00:38:09;;;;;;;6.97;3.53;;;;;;;1.32;93.70;101180.41;337247;28;5044;-76
2024/01/28 00:38:21;;;;;;;8.77;3.38;;;;;;;1.31;93.36;101172.69;334700;28;17859;-76
2024/01/28 00:38:33;;;;;;;8.10;3.00;;;;;;;1.30;93.46;101170.97;336625;28;5752;-76
2024/01/28 00:38:45;;;;;;;7.63;2.75;;;;;;;1.23;93.51;101184.41;335750;28;16352;-76
2024/01/28 00:38:57;;;;;;;6.63;2.90;;;;;;;1.09;93.08;101182.31;329999;28;17898;-76
2024/01/28 00:39:13;;;;;;;4.95;2.92;;;;;;;0.99;93.48;101175.16;338452;28;4855;-76
2024/01/28 00:39:26;;;;;;;5.88;2.92;;;;;;;1.01;93.73;101178.66;337235;28;17782;-76
2024/01/28 00:39:38;;;;;;;5.80;2.88;;;;;;;1.02;94.28;101179.50;334176;28;18112;-75
2024/01/28 00:39:51;;;;;;;5.45;2.88;;;;;;;1.04;93.83;101178.72;335243;28;13178;-75
2024/01/28 00:40:03;;;;;;;5.55;2.90;;;;;;;1.05;94.17;101183.03;337963;28;5394;-75
2024/01/28 00:40:15;;;;;;;5.82;3.05;;;;;;;1.08;93.49;101175.44;337137;28;5927;-75
2024/01/28 00:40:28;;;;;;;7.05;3.65;;;;;;;1.06;93.36;101176.22;335927;28;18237;-75
2024/01/28 00:40:40;;;;;;;8.02;3.80;;;;;;;1.04;92.71;101175.28;332561;28;5677;-76
2024/01/28 00:40:52;;;;;;;8.00;3.70;;;;;;;0.99;92.56;101176.03;334370;28;17718;-76
2024/01/28 00:41:04;;;;;;;7.03;3.38;;;;;;;0.97;92.49;101177.66;336060;28;4526;-76
2024/01/28 00:41:26;;;;;;;5.30;3.47;;;;;;;0.89;92.58;101178.25;337920;28;4563;-76
2024/01/28 00:41:37;;;;;;;6.90;3.55;;;;;;;0.93;92.50;101185.22;336158;28;17265;-76
2024/01/28 00:41:50;;;;;;;6.82;3.50;;;;;;;0.97;92.89;101182.78;337576;28;5259;-76
2024/01/28 00:42:05;;;;;;;4.47;2.97;;;;;;;0.97;92.78;101174.25;334066;28;4728;-76
2024/01/28 00:42:17;;;;;;;4.88;2.85;;;;;;;1.01;92.94;101183.75;335824;28;16014;-76
2024/01/28 00:42:29;;;;;;;5.28;2.78;;;;;;;1.00;92.74;101175.19;337850;28;4624;-76
2024/01/28 00:42:41;;;;;;;5.63;2.85;;;;;;;1.03;92.81;101182.13;335860;28;6801;-76
2024/01/28 00:42:53;;;;;;;6.30;3.00;;;;;;;1.05;92.46;101175.34;337038;28;18407;-76
2024/01/28 00:43:05;;;;;;;6.88;3.45;;;;;;;0.99;91.83;101176.03;337329;28;4709;-76
2024/01/28 00:43:17;;;;;;;6.95;3.50;;;;;;;0.96;91.92;101177.63;335486;28;18444;-76
2024/01/28 00:43:29;;;;;;;7.35;3.40;;;;;;;0.96;91.80;101180.19;337411;28;5562;-76
2024/01/28 00:43:41;;;;;;;6.95;3.13;;;;;;;0.97;91.74;101175.09;335527;28;5046;-76
2024/01/28 00:43:54;;;;;;;5.13;3.05;;;;;;;0.97;92.51;101175.09;330055;28;5563;-76
2024/01/28 00:44:06;;;;;;;5.50;2.97;;;;;;;0.85;91.56;101176.44;338498;28;5329;-76
2024/01/28 00:44:19;;;;;;;7.50;3.30;;;;;;;0.78;91.54;101176.22;333693;28;17631;-76
2024/01/28 00:44:31;;;;;;;8.48;3.50;;;;;;;0.83;91.93;101178.94;338615;28;5508;-76
2024/01/28 00:44:43;;;;;;;7.72;3.30;;;;;;;0.87;92.29;101177.34;335400;28;13064;-76
2024/01/28 00:44:55;;;;;;;6.68;3.33;;;;;;;0.85;92.42;101181.56;335810;28;5450;-75
2024/01/28 00:45:08;;;;;;;7.47;3.38;;;;;;;0.82;92.52;101178.88;334527;28;4648;-75
2024/01/28 00:45:20;;;;;;;7.57;3.40;;;;;;;0.79;93.43;101172.84;332055;29;18042;-75
2024/01/28 00:45:33;;;;;;;6.25;3.25;;;;;;;0.79;92.82;101177.09;334510;29;5125;-75
2024/01/28 00:45:45;;;;;;;6.72;3.45;;;;;;;0.82;92.82;101178.88;331955;29;18008;-75
2024/01/28 00:45:57;;;;;;;6.20;3.45;;;;;;;0.82;93.33;101181.44;334114;29;5391;-75
2024/01/28 00:46:09;;;;;;;6.88;3.20;;;;;;;0.83;93.42;101178.06;330152;29;18122;-75
2024/01/28 00:46:24;;;;;;;7.70;3.45;;;;;;;0.84;93.77;101183.22;332659;29;17033;-75
2024/01/28 00:46:36;;;;;;;9.50;3.58;;;;;;;0.78;92.91;101180.47;332771;28;17566;-75
2024/01/28 00:46:49;;;;;;;10.57;3.63;;;;;;;0.76;93.36;101175.28;331729;29;13647;-74
2024/01/28 00:47:01;;;;;;;8.95;3.78;;;;;;;0.69;92.84;101175.06;334686;29;4517;-74
2024/01/28 00:47:13;;;;;;;7.75;3.53;;;;;;;0.65;93.93;101179.22;334348;29;5485;-75
2024/01/28 00:47:25;;;;;;;7.53;3.10;;;;;;;0.62;94.62;101175.69;331694;29;17856;-75
2024/01/28 00:47:39;;;;;;;6.68;3.22;;;;;;;0.65;94.93;101189.44;330662;29;4566;-75
2024/01/28 00:47:51;;;;;;;7.20;3.20;;;;;;;0.72;94.44;101177.72;331940;29;18228;-75
2024/01/28 00:48:03;;;;;;;7.20;2.95;;;;;;;0.77;94.33;101179.59;334917;28;5099;-75
2024/01/28 00:48:16;;;;;;;7.50;3.28;;;;;;;0.84;94.69;101184.91;332162;29;17969;-75
2024/01/28 00:48:28;;;;;;;5.65;3.25;;;;;;;0.89;94.65;101183.38;334094;29;5306;-75
2024/01/28 00:48:40;;;;;;;4.72;3.15;;;;;;;0.95;94.40;101181.88;331586;29;17957;-75
2024/01/28 00:48:52;;;;;;;5.20;3.03;;;;;;;1.01;94.42;101178.66;337586;28;5742;-75
2024/01/28 00:49:04;;;;;;;6.57;3.10;;;;;;;1.07;94.47;101183.09;336068;28;5438;-75
2024/01/28 00:49:23;;;;;;;7.82;3.30;;;;;;;1.05;94.06;101180.47;334198;29;16956;-75
2024/01/28 00:49:35;;;;;;;6.90;3.20;;;;;;;1.04;94.49;101178.72;333703;28;17620;-75
2024/01/28 00:49:50;;;;;;;7.95;3.35;;;;;;;1.08;94.21;101175.44;334565;28;17026;-75
2024/01/28 00:50:03;;;;;;;9.25;3.67;;;;;;;1.11;94.12;101179.81;338349;28;4644;-75
2024/01/28 00:50:15;;;;;;;8.48;3.50;;;;;;;1.12;94.03;101182.38;334509;28;18088;-75
2024/01/28 00:50:28;;;;;;;6.90;3.22;;;;;;;1.13;94.66;101184.13;330508;28;4962;-75
2024/01/28 00:50:40;;;;;;;7.43;3.25;;;;;;;1.12;94.50;101179.81;331998;29;12974;-75
2024/01/28 00:50:52;;;;;;;6.95;3.40;;;;;;;1.13;94.50;101178.16;336182;29;5234;-75
2024/01/28 00:51:04;;;;;;;12.27;3.90;;;;;;;1.10;94.51;101180.59;335910;28;5504;-75
2024/01/28 00:51:16;;;;;;;11.75;3.83;;;;;;;1.11;94.61;101184.91;333383;28;18128;-75
2024/01/28 00:51:31;;;;;;;7.82;3.78;;;;;;;1.11;94.63;101184.91;336496;28;4709;-75
2024/01/28 00:51:43;;;;;;;5.95;3.78;;;;;;;1.12;95.17;101177.25;333183;28;17958;-75
2024/01/28 00:51:56;;;;;;;6.63;3.67;;;;;;;1.16;94.45;101170.53;335769;28;4607;-75
2024/01/28 00:52:08;;;;;;;6.03;3.50;;;;;;;1.16;95.08;101184.22;326416;28;18376;-75
2024/01/28 00:52:20;;;;;;;8.15;3.40;;;;;;;1.00;95.54;101176.88;335131;28;6088;-75
2024/01/28 00:52:32;;;;;;;8.45;3.55;;;;;;;0.96;96.26;101175.06;333282;28;18138;-75
2024/01/28 00:52:45;;;;;;;7.85;3.63;;;;;;;0.97;95.91;101176.81;335643;28;4737;-75
2024/01/28 00:52:57;;;;;;;11.20;3.30;;;;;;;0.88;96.14;101176.50;330313;28;4649;-76
2024/01/28 00:53:09;;;;;;;10.05;3.08;;;;;;;0.87;95.87;101174.78;337639;28;5237;-76
2024/01/28 00:53:21;;;;;;;6.57;3.20;;;;;;;0.89;96.37;101168.88;336748;28;4744;-76
2024/01/28 00:53:33;;;;;;;5.88;3.20;;;;;;;0.94;96.39;101176.69;335571;28;18213;-76
2024/01/28 00:53:45;;;;;;;5.65;2.97;;;;;;;0.94;96.37;101169.88;333587;28;5031;-76
2024/01/28 00:53:57;;;;;;;4.85;2.72;;;;;;;0.99;96.34;101180.28;334970;28;14840;-76
2024/01/28 00:54:09;;;;;;;4.93;2.70;;;;;;;0.97;95.74;101176.81;338050;28;5730;-76
2024/01/28 00:54:22;;;;;;;5.53;3.10;;;;;;;0.99;96.18;101180.28;335449;28;13871;-76
2024/01/28 00:54:34;;;;;;;5.80;3.25;;;;;;;1.01;96.09;101173.53;330306;28;15032;-76
2024/01/28 00:54:47;;;;;;;5.40;3.33;;;;;;;1.02;96.29;101172.69;333926;28;12873;-76
2024/01/28 00:54:59;;;;;;;6.40;3.22;;;;;;;0.98;96.11;101169.16;332976;28;5483;-76
2024/01/28 00:55:11;;;;;;;6.18;3.10;;;;;;;0.95;95.74;101171.63;337833;28;8352;-76
2024/01/28 00:55:24;;;;;;;6.30;3.20;;;;;;;0.95;96.46;101168.22;333275;28;18221;-76
2024/01/28 00:55:36;;;;;;;5.53;3.25;;;;;;;0.94;96.29;101176.69;337049;28;4756;-76
2024/01/28 00:55:48;;;;;;;5.25;3.15;;;;;;;0.92;95.83;101168.09;334467;28;18141;-76
2024/01/28 00:56:00;;;;;;;5.63;2.95;;;;;;;0.93;96.11;101169.84;337507;28;5743;-76
2024/01/28 00:56:16;;;;;;;5.72;2.90;;;;;;;0.94;95.82;101172.44;334622;28;5239;-76
2024/01/28 00:56:28;;;;;;;7.88;3.50;;;;;;;0.96;95.67;101168.22;334150;28;16045;-76
2024/01/28 00:56:40;;;;;;;8.90;3.45;;;;;;;0.99;95.71;101167.47;331571;28;4701;-76
2024/01/28 00:56:56;;;;;;;7.20;3.25;;;;;;;0.95;95.57;101168.22;337376;28;4548;-76
2024/01/28 00:57:08;;;;;;;6.50;3.25;;;;;;;0.95;95.96;101169.06;334091;28;17667;-76
2024/01/28 00:57:20;;;;;;;6.10;3.25;;;;;;;0.95;95.93;101173.34;336316;28;4619;-76
2024/01/28 00:57:32;;;;;;;5.45;3.15;;;;;;;0.96;95.55;101167.38;337393;28;4846;-76
2024/01/28 00:57:45;;;;;;;6.65;3.38;;;;;;;0.92;95.46;101168.97;334075;28;18410;-76
2024/01/28 00:57:58;;;;;;;6.93;3.25;;;;;;;0.91;95.59;101171.50;336988;28;5553;-76
2024/01/28 00:58:10;;;;;;;6.10;3.30;;;;;;;0.88;95.17;101176.50;328094;28;18275;-76
2024/01/28 00:58:22;;;;;;;5.68;3.22;;;;;;;0.88;95.05;101168.81;334696;29;5488;-76
2024/01/28 00:58:34;;;;;;;7.88;3.20;;;;;;;0.86;94.74;101170.47;333221;29;18304;-76
2024/01/28 00:58:46;;;;;;;6.90;2.92;;;;;;;0.88;94.36;101166.28;337088;28;4604;-76
2024/01/28 00:58:59;;;;;;;6.40;2.97;;;;;;;0.87;94.29;101172.22;333881;29;4616;-76
2024/01/28 00:59:11;;;;;;;6.43;3.05;;;;;;;0.83;94.48;101171.25;335417;28;5451;-76
2024/01/28 00:59:23;;;;;;;6.80;3.38;;;;;;;0.81;94.33;101167.78;336669;28;4525;-76
2024/01/28 00:59:35;;;;;;;7.28;3.67;;;;;;;0.81;93.78;101169.47;329637;28;18382;-76
2024/01/28 00:59:47;;;;;;;6.88;3.40;;;;;;;0.81;93.51;101169.47;338452;28;5226;-76